METAR Data
IDs: Format: Raw Decoded Include TAF

Data at: 1013 UTC 28 Sep 2021

EBDT 280955Z AUTO 17005KT 9999 FEW220/// 16/10 Q1023 BLU